createdAt,value
2022-09-18T00:02:37.796Z,47.00
2022-09-18T00:05:26.209Z,49.30
2022-09-18T00:08:24.963Z,51.97
2022-09-18T00:11:16.105Z,53.47
2022-09-18T00:14:07.219Z,55.33
2022-09-18T00:16:55.761Z,55.77
2022-09-18T00:19:44.156Z,55.70
2022-09-18T00:22:32.426Z,56.40
2022-09-18T00:25:22.166Z,57.50
2022-09-18T00:28:16.683Z,58.30
2022-09-18T00:31:06.416Z,60.13
2022-09-18T00:34:02.694Z,61.23
2022-09-18T00:36:51.034Z,63.03
2022-09-18T00:39:45.534Z,61.77
2022-09-18T00:42:35.209Z,62.67
2022-09-18T00:45:29.596Z,63.13
2022-09-18T00:48:18.791Z,64.83
2022-09-18T00:51:07.670Z,65.20
2022-09-18T00:54:07.931Z,65.90
2022-09-18T00:57:01.463Z,65.80
2022-09-18T00:59:53.213Z,65.97
2022-09-18T01:02:43.057Z,66.83
2022-09-18T01:05:59.144Z,66.00
2022-09-18T01:09:01.986Z,67.50
2022-09-18T01:11:55.648Z,65.97
2022-09-18T01:14:54.760Z,66.33
2022-09-18T01:17:51.844Z,66.77
2022-09-18T01:20:57.990Z,67.20
2022-09-18T01:24:10.361Z,68.03
2022-09-18T01:27:02.560Z,67.63
2022-09-18T01:30:06.886Z,68.07
2022-09-18T01:32:59.370Z,68.70
2022-09-18T01:35:53.802Z,67.83
2022-09-18T01:38:49.582Z,68.13
2022-09-18T01:41:41.534Z,69.07
2022-09-18T01:44:34.704Z,68.57
2022-09-18T01:47:31.924Z,69.20
2022-09-18T01:50:21.051Z,68.10
2022-09-18T01:53:22.330Z,66.57
2022-09-18T01:56:15.122Z,67.77
2022-09-18T01:59:08.699Z,66.80
2022-09-18T02:02:11.885Z,65.97
2022-09-18T02:05:07.643Z,65.40
2022-09-18T02:08:09.245Z,65.40
2022-09-18T02:11:04.097Z,64.80
2022-09-18T02:13:59.483Z,63.73
2022-09-18T02:17:04.485Z,64.67
2022-09-18T02:20:00.294Z,64.23
2022-09-18T02:22:54.123Z,65.00
2022-09-18T02:25:45.849Z,62.73
2022-09-18T02:28:37.362Z,62.27
2022-09-18T02:31:26.075Z,60.53
2022-09-18T02:34:23.576Z,59.50
2022-09-18T02:37:32.092Z,58.27
2022-09-18T02:40:31.646Z,57.47
2022-09-18T02:43:36.843Z,58.00
2022-09-18T02:46:38.033Z,58.50
2022-09-18T02:49:36.995Z,58.83
2022-09-18T02:52:31.931Z,59.07
2022-09-18T02:55:28.439Z,57.77
2022-09-18T02:58:22.623Z,57.80
2022-09-18T03:01:15.596Z,58.00
2022-09-18T03:04:05.799Z,58.43
2022-09-18T03:07:16.021Z,59.93
2022-09-18T03:10:05.537Z,60.27
2022-09-18T03:13:01.522Z,60.60
2022-09-18T03:15:50.101Z,61.60
2022-09-18T03:18:46.252Z,61.97
2022-09-18T03:21:34.847Z,61.00
2022-09-18T03:24:25.783Z,61.57
2022-09-18T03:27:23.573Z,61.23
2022-09-18T03:30:15.643Z,61.37
2022-09-18T03:33:04.233Z,61.37
2022-09-18T03:35:59.802Z,61.40
2022-09-18T03:38:48.382Z,61.57
2022-09-18T03:41:42.981Z,61.10
2022-09-18T03:44:31.321Z,61.63
2022-09-18T03:47:23.070Z,61.50
2022-09-18T03:50:11.873Z,61.53
2022-09-18T03:53:09.584Z,60.83
2022-09-18T03:56:04.040Z,59.50
2022-09-18T03:59:24.885Z,59.57
2022-09-18T04:02:29.315Z,59.97
2022-09-18T04:05:36.258Z,60.13
2022-09-18T04:08:43.250Z,59.97
2022-09-18T04:11:45.646Z,59.23
2022-09-18T04:14:34.066Z,58.60
2022-09-18T04:17:29.772Z,59.70
2022-09-18T04:20:19.041Z,60.17
2022-09-18T04:23:07.795Z,61.60
2022-09-18T04:26:09.431Z,60.87
2022-09-18T04:29:02.761Z,61.50
2022-09-18T04:31:52.160Z,61.03
2022-09-18T04:34:44.436Z,60.60
2022-09-18T04:37:33.188Z,60.30
2022-09-18T04:40:23.314Z,60.07
2022-09-18T04:43:12.798Z,61.07
2022-09-18T04:46:02.207Z,60.13
2022-09-18T04:48:51.479Z,59.77
2022-09-18T04:51:45.990Z,58.27
2022-09-18T04:54:37.720Z,57.70
2022-09-18T04:57:32.159Z,58.20
2022-09-18T05:00:21.062Z,57.77
2022-09-18T05:03:10.306Z,57.53
2022-09-18T05:06:01.004Z,57.43
2022-09-18T05:08:50.952Z,57.90
2022-09-18T05:11:40.702Z,57.73
2022-09-18T05:14:29.228Z,56.50
2022-09-18T05:17:22.277Z,57.03
2022-09-18T05:20:20.993Z,56.63
2022-09-18T05:23:10.026Z,56.20
2022-09-18T05:25:59.905Z,56.17
2022-09-18T05:28:57.075Z,54.90
2022-09-18T05:31:45.643Z,55.53
2022-09-18T05:34:36.395Z,55.60
2022-09-18T05:37:30.616Z,53.57
2022-09-18T05:40:19.241Z,52.80
2022-09-18T05:43:15.490Z,51.40
2022-09-18T05:46:04.351Z,50.60
2022-09-18T05:49:01.719Z,50.27
2022-09-18T05:51:58.987Z,48.73
2022-09-18T05:54:50.525Z,46.30
2022-09-18T05:57:47.529Z,45.43
2022-09-18T06:00:37.356Z,43.90
2022-09-18T06:03:32.145Z,42.63
2022-09-18T06:06:28.445Z,42.20
2022-09-18T06:09:16.913Z,41.67
2022-09-18T06:12:11.619Z,41.90
2022-09-18T06:15:00.343Z,42.67
2022-09-18T06:17:56.918Z,42.70
2022-09-18T06:20:52.635Z,42.17
2022-09-18T06:23:43.252Z,43.67
2022-09-18T06:26:45.998Z,42.73
2022-09-18T06:29:35.077Z,42.23
2022-09-18T06:32:36.146Z,42.60
2022-09-18T06:35:33.989Z,41.50
2022-09-18T06:38:22.500Z,36.37
2022-09-18T06:41:13.032Z,33.47
2022-09-18T06:44:09.820Z,30.57
2022-09-18T06:47:03.817Z,31.43
2022-09-18T06:50:00.253Z,28.83
2022-09-18T06:53:02.969Z,25.47
2022-09-18T06:55:54.640Z,25.67
2022-09-18T06:58:53.165Z,24.97
2022-09-18T07:01:42.236Z,23.77
2022-09-18T07:04:40.069Z,21.90
2022-09-18T07:07:34.888Z,20.73
2022-09-18T07:10:25.572Z,20.03
2022-09-18T07:13:13.976Z,19.27
2022-09-18T07:16:07.158Z,19.60
2022-09-18T07:19:01.670Z,17.10
2022-09-18T07:21:53.290Z,16.13
2022-09-18T07:24:41.616Z,17.27
2022-09-18T07:27:40.840Z,16.70
2022-09-18T07:30:29.460Z,15.43
2022-09-18T07:33:21.112Z,16.27
2022-09-18T07:36:16.628Z,15.80
2022-09-18T07:39:05.616Z,15.37
2022-09-18T07:42:09.832Z,14.07
2022-09-18T07:44:59.837Z,13.70
2022-09-18T07:47:48.240Z,13.90
2022-09-18T07:50:36.888Z,13.73
2022-09-18T07:53:34.348Z,13.00
2022-09-18T07:56:23.443Z,13.33
2022-09-18T07:59:20.884Z,13.30
2022-09-18T08:02:16.697Z,12.67
2022-09-18T08:05:05.676Z,12.97
2022-09-18T08:08:05.281Z,12.70
2022-09-18T08:11:13.901Z,12.37
2022-09-18T08:14:07.450Z,11.97
2022-09-18T08:17:00.352Z,12.50
2022-09-18T08:20:01.886Z,12.63
2022-09-18T08:23:13.796Z,12.20
2022-09-18T08:26:09.787Z,12.30
2022-09-18T08:28:58.855Z,11.57
2022-09-18T08:31:53.756Z,11.30
2022-09-18T08:34:43.734Z,10.87
2022-09-18T08:37:37.250Z,10.57
2022-09-18T08:40:58.040Z,9.70
2022-09-18T08:43:57.356Z,8.77
2022-09-18T08:46:51.829Z,8.30
2022-09-18T08:49:46.536Z,8.40
2022-09-18T08:52:44.351Z,8.50
2022-09-18T08:55:49.898Z,8.70
2022-09-18T08:58:59.547Z,8.67
2022-09-18T09:01:57.244Z,8.10
2022-09-18T09:04:47.491Z,6.90
2022-09-18T09:08:15.848Z,7.00
2022-09-18T09:11:13.560Z,6.50
2022-09-18T09:14:34.451Z,7.10
2022-09-18T09:17:40.890Z,6.60
2022-09-18T09:20:45.641Z,5.73
2022-09-18T09:23:51.562Z,4.80
2022-09-18T09:26:57.384Z,5.40
2022-09-18T09:30:22.396Z,5.10
2022-09-18T09:33:36.687Z,4.80
2022-09-18T09:37:02.005Z,5.50
2022-09-18T09:39:56.779Z,6.70
2022-09-18T09:42:51.609Z,6.70
2022-09-18T09:45:46.137Z,7.93
2022-09-18T09:48:42.751Z,9.40
2022-09-18T09:51:40.685Z,10.90
2022-09-18T09:54:29.190Z,12.10
2022-09-18T09:57:34.077Z,11.50
2022-09-18T10:00:24.933Z,12.80
2022-09-18T10:03:42.495Z,13.73
2022-09-18T10:06:50.377Z,12.17
2022-09-18T10:09:47.407Z,12.07
2022-09-18T10:12:46.447Z,10.47
2022-09-18T10:15:40.785Z,9.40
2022-09-18T10:18:36.375Z,8.87
2022-09-18T10:21:28.409Z,8.13
2022-09-18T10:24:23.660Z,7.70
2022-09-18T10:27:16.562Z,7.03
2022-09-18T10:30:12.945Z,6.60
2022-09-18T10:33:32.805Z,6.60
2022-09-18T10:36:28.310Z,6.17
2022-09-18T10:39:19.897Z,6.67
2022-09-18T10:42:17.789Z,6.30
2022-09-18T10:45:21.757Z,5.80
2022-09-18T10:48:15.705Z,5.50
2022-09-18T10:51:06.456Z,5.43
2022-09-18T10:54:16.162Z,6.50
2022-09-18T10:57:29.337Z,6.40
2022-09-18T11:00:49.681Z,6.03
2022-09-18T11:03:43.838Z,5.40
2022-09-18T11:06:39.440Z,5.83
2022-09-18T11:09:42.872Z,5.70
2022-09-18T11:12:35.179Z,5.23
2022-09-18T11:15:33.700Z,4.70
2022-09-18T11:18:23.722Z,3.63
2022-09-18T11:21:19.084Z,4.00
2022-09-18T11:24:19.576Z,4.50
2022-09-18T11:27:20.750Z,5.67
2022-09-18T11:30:16.505Z,7.60
2022-09-18T11:33:20.769Z,8.97
2022-09-18T11:36:13.093Z,10.10
2022-09-18T11:39:03.174Z,10.17
2022-09-18T11:41:56.773Z,11.20
2022-09-18T11:44:46.131Z,13.60
2022-09-18T11:47:42.014Z,13.27
2022-09-18T11:50:36.288Z,14.20
2022-09-18T11:53:29.601Z,15.73
2022-09-18T11:56:32.590Z,17.47
2022-09-18T11:59:30.740Z,18.07
2022-09-18T12:02:28.261Z,16.87
2022-09-18T12:05:24.465Z,14.10
2022-09-18T12:08:19.427Z,10.57
2022-09-18T12:11:20.131Z,10.10
2022-09-18T12:14:17.699Z,9.70
2022-09-18T12:17:26.062Z,8.93
2022-09-18T12:20:22.852Z,8.83
2022-09-18T12:23:14.866Z,9.47
2022-09-18T12:26:21.387Z,8.80
2022-09-18T12:29:26.731Z,9.27
2022-09-18T12:32:32.772Z,10.20
2022-09-18T12:35:33.297Z,12.07
2022-09-18T12:38:46.652Z,13.57
2022-09-18T12:41:48.987Z,14.53
2022-09-18T12:44:54.162Z,15.00
2022-09-18T12:48:01.858Z,14.20
2022-09-18T12:51:02.413Z,13.97
2022-09-18T12:54:14.306Z,14.50
2022-09-18T12:57:19.273Z,15.70
2022-09-18T13:00:11.658Z,16.90
2022-09-18T13:03:09.841Z,18.07
2022-09-18T13:06:02.800Z,18.77
2022-09-18T13:08:57.910Z,18.73
2022-09-18T13:11:51.283Z,20.00
2022-09-18T13:14:44.393Z,21.73
2022-09-18T13:17:37.597Z,24.40
2022-09-18T13:20:32.642Z,23.40
2022-09-18T13:23:24.138Z,22.80
2022-09-18T13:26:16.014Z,22.03
2022-09-18T13:29:05.479Z,20.73
2022-09-18T13:31:54.907Z,20.00
2022-09-18T13:34:50.104Z,20.77
2022-09-18T13:37:39.980Z,21.33
2022-09-18T13:40:35.936Z,19.43
2022-09-18T13:43:39.741Z,17.57
2022-09-18T13:46:39.692Z,16.57
2022-09-18T13:49:32.148Z,16.77
2022-09-18T13:52:46.110Z,17.30
2022-09-18T13:55:48.450Z,18.40
2022-09-18T13:58:47.980Z,19.73
2022-09-18T14:02:23.023Z,20.87
2022-09-18T14:05:30.892Z,21.80
2022-09-18T14:08:39.430Z,21.87
2022-09-18T14:11:33.916Z,22.67
2022-09-18T14:14:25.861Z,22.80
2022-09-18T14:17:16.358Z,22.70
2022-09-18T14:20:18.749Z,23.77
2022-09-18T14:23:41.447Z,25.30
2022-09-18T14:26:56.783Z,24.47
2022-09-18T14:29:48.549Z,24.27
2022-09-18T14:32:37.130Z,22.73
2022-09-18T14:35:44.916Z,22.67
2022-09-18T14:38:35.861Z,22.97
2022-09-18T14:41:28.681Z,21.93
2022-09-18T14:44:18.664Z,21.60
2022-09-18T14:47:22.317Z,21.90
2022-09-18T14:50:27.595Z,22.57
2022-09-18T14:53:21.959Z,24.40
2022-09-18T14:56:13.739Z,25.30
2022-09-18T14:59:06.045Z,26.67
2022-09-18T15:02:12.933Z,27.27
2022-09-18T15:05:03.752Z,28.23
2022-09-18T15:07:56.133Z,28.10
2022-09-18T15:10:49.445Z,28.00
2022-09-18T15:13:39.026Z,28.77
2022-09-18T15:16:36.545Z,29.27
2022-09-18T15:19:27.195Z,31.10
2022-09-18T15:22:22.458Z,32.00
2022-09-18T15:25:13.589Z,32.43
2022-09-18T15:28:07.806Z,32.93
2022-09-18T15:31:03.650Z,33.57
2022-09-18T15:33:58.528Z,31.80
2022-09-18T15:36:56.606Z,29.67
2022-09-18T15:39:48.328Z,27.57
2022-09-18T15:42:40.029Z,25.30
2022-09-18T15:45:30.675Z,24.10
2022-09-18T15:48:37.017Z,21.87
2022-09-18T15:51:28.003Z,22.63
2022-09-18T15:54:28.869Z,22.17
2022-09-18T15:57:17.331Z,22.83
2022-09-18T16:00:19.376Z,23.50
2022-09-18T16:03:09.744Z,23.10
2022-09-18T16:06:08.802Z,23.17
2022-09-18T16:08:58.353Z,23.53
2022-09-18T16:11:48.565Z,23.50
2022-09-18T16:14:42.878Z,23.47
2022-09-18T16:17:55.128Z,24.80
2022-09-18T16:20:45.448Z,26.83
2022-09-18T16:23:36.474Z,27.27
2022-09-18T16:26:29.782Z,27.60
2022-09-18T16:29:22.530Z,28.23
2022-09-18T16:32:12.789Z,28.73
2022-09-18T16:35:01.586Z,28.57
2022-09-18T16:37:51.097Z,28.73
2022-09-18T16:40:48.947Z,29.03
2022-09-18T16:43:37.405Z,28.43
2022-09-18T16:46:33.968Z,28.80
2022-09-18T16:49:26.456Z,28.87
2022-09-18T16:52:15.188Z,29.53
2022-09-18T16:55:10.878Z,29.90
2022-09-18T16:57:59.988Z,30.27
2022-09-18T17:00:54.450Z,30.97
2022-09-18T17:03:44.493Z,31.57
2022-09-18T17:06:39.487Z,31.20
2022-09-18T17:09:28.185Z,31.80
2022-09-18T17:12:23.893Z,32.17
2022-09-18T17:15:12.346Z,32.83
2022-09-18T17:18:06.972Z,34.00
2022-09-18T17:20:57.133Z,34.53
2022-09-18T17:23:51.962Z,35.13
2022-09-18T17:26:42.268Z,35.67
2022-09-18T17:29:36.720Z,35.63
2022-09-18T17:32:25.073Z,36.60
2022-09-18T17:35:19.572Z,36.33
2022-09-18T17:38:09.304Z,36.77
2022-09-18T17:41:06.517Z,37.43
2022-09-18T17:43:55.321Z,38.93
2022-09-18T17:46:52.707Z,39.60
2022-09-18T17:49:41.274Z,40.53
2022-09-18T17:52:38.752Z,41.67
2022-09-18T17:55:28.629Z,41.57
2022-09-18T17:58:17.181Z,42.27
2022-09-18T18:01:16.950Z,41.93
2022-09-18T18:04:05.828Z,42.57
2022-09-18T18:06:54.301Z,42.20
2022-09-18T18:09:42.611Z,42.90
2022-09-18T18:12:41.874Z,41.43
2022-09-18T18:15:30.402Z,43.20
2022-09-18T18:18:28.759Z,43.63
2022-09-18T18:21:17.577Z,43.07
2022-09-18T18:24:09.171Z,44.50
2022-09-18T18:26:58.060Z,45.27
2022-09-18T18:29:57.225Z,45.43
2022-09-18T18:32:45.711Z,46.30
2022-09-18T18:35:36.889Z,46.40
2022-09-18T18:38:25.519Z,46.40
2022-09-18T18:41:25.047Z,47.17
2022-09-18T18:44:13.471Z,47.17
2022-09-18T18:47:03.238Z,47.13
2022-09-18T18:49:54.269Z,47.07
2022-09-18T18:52:43.322Z,47.67
2022-09-18T18:55:31.686Z,46.97
2022-09-18T18:58:20.485Z,48.13
2022-09-18T19:01:19.462Z,48.33
2022-09-18T19:04:11.373Z,48.83
2022-09-18T19:06:59.727Z,48.93
2022-09-18T19:09:54.213Z,47.70
2022-09-18T19:12:42.594Z,45.10
2022-09-18T19:15:38.529Z,44.33
2022-09-18T19:18:26.955Z,43.30
2022-09-18T19:21:23.311Z,43.17
2022-09-18T19:24:13.377Z,43.37
2022-09-18T19:27:08.149Z,43.23
2022-09-18T19:29:56.537Z,43.10
2022-09-18T19:32:54.611Z,43.80
2022-09-18T19:35:42.985Z,45.63
2022-09-18T19:38:38.709Z,47.03
2022-09-18T19:41:33.621Z,48.23
2022-09-18T19:44:28.062Z,49.33
2022-09-18T19:47:21.666Z,50.00
2022-09-18T19:50:18.866Z,50.43
2022-09-18T19:53:07.542Z,51.13
2022-09-18T19:56:18.447Z,50.63
2022-09-18T19:59:16.652Z,52.60
2022-09-18T20:02:13.317Z,51.20
2022-09-18T20:05:02.142Z,51.30
2022-09-18T20:07:56.710Z,50.80
2022-09-18T20:10:45.103Z,50.77
2022-09-18T20:13:41.189Z,51.07
2022-09-18T20:16:29.702Z,50.20
2022-09-18T20:19:24.842Z,50.00
2022-09-18T20:22:13.206Z,49.90
2022-09-18T20:25:05.280Z,48.90
2022-09-18T20:27:53.643Z,50.00
2022-09-18T20:30:43.520Z,50.67
2022-09-18T20:33:32.005Z,50.43
2022-09-18T20:36:20.336Z,50.80
2022-09-18T20:39:09.201Z,51.03
2022-09-18T20:42:00.733Z,49.37
2022-09-18T20:44:49.172Z,48.90
2022-09-18T20:47:39.119Z,48.50
2022-09-18T20:50:28.050Z,47.63
2022-09-18T20:53:19.249Z,47.40
2022-09-18T20:56:08.201Z,46.90
2022-09-18T20:59:05.554Z,46.50
2022-09-18T21:01:53.890Z,46.40
2022-09-18T21:04:47.103Z,46.53
2022-09-18T21:07:36.062Z,46.43
2022-09-18T21:10:33.833Z,46.13
2022-09-18T21:13:22.591Z,46.23
2022-09-18T21:16:10.983Z,45.80
2022-09-18T21:19:06.835Z,46.70
2022-09-18T21:21:57.177Z,46.73
2022-09-18T21:24:46.403Z,46.33
2022-09-18T21:27:34.778Z,46.03
2022-09-18T21:30:26.312Z,46.20
2022-09-18T21:33:15.960Z,45.73
2022-09-18T21:36:10.682Z,45.57
2022-09-18T21:39:00.870Z,45.37
2022-09-18T21:41:55.949Z,44.83
2022-09-18T21:44:45.782Z,44.83
2022-09-18T21:47:34.183Z,45.20
2022-09-18T21:50:22.928Z,44.10
2022-09-18T21:53:11.488Z,44.23
2022-09-18T21:56:02.533Z,43.57
2022-09-18T21:58:51.060Z,43.50
2022-09-18T22:01:46.938Z,43.50
2022-09-18T22:04:35.562Z,43.80
2022-09-18T22:07:29.953Z,43.73
2022-09-18T22:10:18.452Z,43.40
2022-09-18T22:13:14.247Z,43.30
2022-09-18T22:16:03.282Z,43.50
2022-09-18T22:18:58.094Z,43.47
2022-09-18T22:21:48.107Z,44.07
2022-09-18T22:24:42.219Z,43.33
2022-09-18T22:27:30.605Z,42.57
2022-09-18T22:30:27.033Z,42.93
2022-09-18T22:33:15.324Z,43.07
2022-09-18T22:36:09.781Z,42.43
2022-09-18T22:38:58.035Z,42.47
2022-09-18T22:41:52.618Z,42.87
2022-09-18T22:44:40.895Z,42.80
2022-09-18T22:47:31.211Z,42.63
2022-09-18T22:50:19.493Z,43.30
2022-09-18T22:53:14.063Z,41.80
2022-09-18T22:56:04.396Z,42.70
2022-09-18T22:58:54.341Z,41.33
2022-09-18T23:01:48.974Z,39.77
2022-09-18T23:04:38.700Z,39.57
2022-09-18T23:07:36.000Z,39.23
2022-09-18T23:10:24.426Z,39.07
2022-09-18T23:13:24.792Z,39.03
2022-09-18T23:16:14.113Z,40.57
2022-09-18T23:19:16.522Z,41.87
2022-09-18T23:22:10.050Z,42.13
2022-09-18T23:24:58.480Z,42.50
2022-09-18T23:27:53.752Z,42.30
2022-09-18T23:30:42.064Z,42.87
2022-09-18T23:33:36.765Z,43.60
2022-09-18T23:36:27.043Z,44.07
2022-09-18T23:39:24.549Z,43.40
2022-09-18T23:42:12.868Z,45.33
2022-09-18T23:45:08.312Z,45.03
2022-09-18T23:47:56.639Z,45.57
2022-09-18T23:50:44.881Z,44.83
2022-09-18T23:53:38.029Z,44.73
2022-09-18T23:56:29.229Z,44.80
2022-09-18T23:59:22.679Z,45.40
